Time;durP1;ratioP1;P1;durP2;ratioP2;P2;SDS_P1;SDS_P2;PMS_P1;PMS_P2;Temp;Humidity;BMP_temperature;BMP_pressure;BME280_temperature;BME280_humidity;BME280_pressure;Samples;Min_cycle;Max_cycle;Signal;HPM_P1;HPM_P2
2023/03/14 00:00:32;;;;;;;5.23;1.80;;;9.20;99.90;;;;;;489464;243;28161;-77
2023/03/14 00:02:33;;;;;;;4.10;2.07;;;9.20;99.90;;;;;;489418;243;28039;-78
2023/03/14 00:04:34;;;;;;;7.43;1.87;;;9.20;99.90;;;;;;489412;243;27945;-77
2023/03/14 00:06:36;;;;;;;3.27;1.83;;;9.20;99.90;;;;;;489402;243;28218;-77
2023/03/14 00:08:37;;;;;;;3.27;2.10;;;9.20;99.90;;;;;;489344;243;28078;-78
2023/03/14 00:10:38;;;;;;;5.10;2.50;;;9.10;99.90;;;;;;489244;243;28422;-78
2023/03/14 00:12:39;;;;;;;4.67;2.20;;;9.10;99.90;;;;;;489212;243;29241;-78
2023/03/14 00:14:42;;;;;;;4.60;2.10;;;9.10;99.90;;;;;;489307;243;28048;-79
2023/03/14 00:16:42;;;;;;;4.00;1.53;;;9.10;99.90;;;;;;489156;243;27673;-77
2023/03/14 00:18:43;;;;;;;6.20;2.10;;;9.10;99.90;;;;;;489202;243;27600;-77
2023/03/14 00:20:44;;;;;;;3.97;2.00;;;9.10;99.90;;;;;;489263;243;27762;-78
2023/03/14 00:22:46;;;;;;;4.47;1.87;;;9.10;99.90;;;;;;489220;243;27954;-78
2023/03/14 00:24:47;;;;;;;3.10;1.60;;;9.00;99.90;;;;;;489259;243;28057;-78
2023/03/14 00:26:48;;;;;;;6.37;2.00;;;9.00;99.90;;;;;;489252;243;28038;-77
2023/03/14 00:28:49;;;;;;;7.40;1.70;;;9.00;99.90;;;;;;489259;243;28035;-78
2023/03/14 00:30:51;;;;;;;3.57;1.73;;;9.00;99.90;;;;;;489246;243;27877;-77
2023/03/14 00:32:52;;;;;;;8.60;2.20;;;8.90;99.90;;;;;;489171;243;27844;-78
2023/03/14 00:34:53;;;;;;;6.67;2.07;;;8.90;99.90;;;;;;489240;243;27821;-78
2023/03/14 00:36:54;;;;;;;12.03;2.57;;;9.00;99.90;;;;;;489250;243;27997;-78
2023/03/14 00:38:56;;;;;;;4.03;1.80;;;9.00;99.90;;;;;;489223;243;27955;-79
2023/03/14 00:40:57;;;;;;;2.00;1.70;;;9.00;99.90;;;;;;489184;243;27997;-79
2023/03/14 00:42:58;;;;;;;3.90;1.90;;;9.00;99.90;;;;;;489171;243;29334;-78
2023/03/14 00:44:59;;;;;;;5.77;2.00;;;9.00;99.90;;;;;;489139;243;28473;-78
2023/03/14 00:47:01;;;;;;;6.67;2.60;;;8.90;99.90;;;;;;489172;243;28571;-78
2023/03/14 00:49:02;;;;;;;8.20;1.97;;;9.00;99.90;;;;;;489158;243;28157;-79
2023/03/14 00:51:03;;;;;;;3.70;1.80;;;9.00;99.90;;;;;;489182;243;27856;-78
2023/03/14 00:53:04;;;;;;;4.57;1.80;;;9.00;99.90;;;;;;489176;243;28540;-78
2023/03/14 00:55:06;;;;;;;4.77;1.83;;;9.10;99.90;;;;;;489196;243;27972;-79
2023/03/14 00:57:07;;;;;;;7.67;2.70;;;9.10;99.90;;;;;;489187;243;28254;-78
2023/03/14 00:59:08;;;;;;;2.30;1.67;;;9.00;99.90;;;;;;489164;243;27961;-78
2023/03/14 01:01:09;;;;;;;5.67;2.00;;;9.00;99.90;;;;;;489207;243;27985;-78
2023/03/14 01:03:11;;;;;;;5.00;2.20;;;9.00;99.90;;;;;;489179;243;27753;-79
2023/03/14 01:05:12;;;;;;;4.87;1.80;;;9.00;99.90;;;;;;489226;243;28018;-78
2023/03/14 01:07:13;;;;;;;4.53;1.70;;;9.00;99.90;;;;;;489211;243;28044;-77
2023/03/14 01:09:16;;;;;;;3.80;1.50;;;9.00;99.90;;;;;;489165;243;27821;-78
2023/03/14 01:11:16;;;;;;;17.23;2.50;;;9.00;99.90;;;;;;489044;243;27841;-78
2023/03/14 01:13:19;;;;;;;5.33;2.23;;;9.00;99.90;;;;;;489165;243;28314;-78
2023/03/14 01:15:20;;;;;;;2.60;1.60;;;9.00;99.90;;;;;;489156;243;27993;-78
2023/03/14 01:17:22;;;;;;;5.17;1.73;;;9.00;99.90;;;;;;489178;242;27643;-78
2023/03/14 01:19:22;;;;;;;7.10;1.90;;;9.00;99.90;;;;;;489125;243;27907;-79
2023/03/14 01:21:23;;;;;;;3.70;1.60;;;9.00;99.90;;;;;;489174;243;28495;-78
2023/03/14 01:23:25;;;;;;;2.93;1.70;;;9.00;99.90;;;;;;489136;243;28298;-78
2023/03/14 01:25:26;;;;;;;6.00;2.20;;;8.90;99.90;;;;;;489120;243;28443;-78
2023/03/14 01:27:27;;;;;;;4.47;1.83;;;8.90;99.90;;;;;;489162;243;28440;-77
2023/03/14 01:29:28;;;;;;;7.10;2.00;;;8.90;99.90;;;;;;489201;243;28605;-79
2023/03/14 01:31:30;;;;;;;13.30;2.13;;;8.90;99.90;;;;;;489148;243;28081;-78
2023/03/14 01:33:31;;;;;;;5.63;2.37;;;8.90;99.90;;;;;;489171;243;27925;-78
2023/03/14 01:35:32;;;;;;;6.20;1.60;;;8.90;99.90;;;;;;489080;243;28041;-78
2023/03/14 01:37:33;;;;;;;9.57;2.00;;;8.90;99.90;;;;;;489187;243;28066;-76
2023/03/14 01:39:35;;;;;;;4.60;2.20;;;8.80;99.90;;;;;;489156;243;27536;-79
2023/03/14 01:41:36;;;;;;;5.27;2.00;;;8.80;99.90;;;;;;489165;243;27961;-78
2023/03/14 01:43:37;;;;;;;6.97;2.07;;;8.80;99.90;;;;;;489142;243;28419;-78
2023/03/14 01:45:38;;;;;;;4.27;2.07;;;8.80;99.90;;;;;;489074;243;27622;-78
2023/03/14 01:47:40;;;;;;;6.03;2.40;;;8.80;99.90;;;;;;489129;243;27658;-78
2023/03/14 01:49:41;;;;;;;3.40;1.93;;;8.70;99.90;;;;;;489082;243;27804;-78
2023/03/14 01:51:42;;;;;;;4.13;1.63;;;8.80;99.90;;;;;;489116;243;28065;-78
2023/03/14 01:53:43;;;;;;;3.87;1.93;;;8.80;99.90;;;;;;489143;243;28113;-79
2023/03/14 01:55:45;;;;;;;6.67;2.20;;;8.70;99.90;;;;;;489134;243;28120;-78
2023/03/14 01:57:46;;;;;;;2.60;2.03;;;8.70;99.90;;;;;;489183;243;28009;-78
2023/03/14 01:59:47;;;;;;;3.63;1.60;;;8.70;99.90;;;;;;489140;243;28365;-78
2023/03/14 02:01:49;;;;;;;5.03;1.70;;;8.70;99.90;;;;;;489189;243;28520;-79
2023/03/14 02:03:50;;;;;;;2.83;1.83;;;8.70;99.90;;;;;;489129;243;28836;-78
2023/03/14 02:05:51;;;;;;;3.20;1.73;;;8.70;99.90;;;;;;489182;243;28172;-79
2023/03/14 02:07:52;;;;;;;4.27;2.03;;;8.70;99.90;;;;;;489138;243;28685;-78
2023/03/14 02:09:53;;;;;;;3.43;1.67;;;8.70;99.90;;;;;;489180;243;28024;-79
2023/03/14 02:11:55;;;;;;;5.27;1.83;;;8.70;99.90;;;;;;489127;243;28018;-78
2023/03/14 02:13:56;;;;;;;4.67;2.10;;;8.60;99.90;;;;;;489153;243;27828;-77
2023/03/14 02:15:57;;;;;;;3.20;1.87;;;8.60;99.90;;;;;;489155;243;27588;-78
2023/03/14 02:17:58;;;;;;;3.87;2.10;;;8.70;99.90;;;;;;489164;243;27964;-79
2023/03/14 02:20:00;;;;;;;9.40;2.20;;;8.70;99.90;;;;;;489148;243;27948;-79
2023/03/14 02:22:01;;;;;;;3.10;1.80;;;8.70;99.90;;;;;;489116;243;28000;-79
2023/03/14 02:24:04;;;;;;;7.80;2.00;;;8.70;99.90;;;;;;488816;243;28383;-77
2023/03/14 02:26:05;;;;;;;7.47;2.00;;;8.70;99.90;;;;;;489131;243;28170;-78
2023/03/14 02:28:06;;;;;;;7.37;2.63;;;8.70;99.90;;;;;;489145;243;27996;-78
2023/03/14 02:30:08;;;;;;;6.40;2.27;;;8.70;99.90;;;;;;489135;243;28153;-78
2023/03/14 02:32:09;;;;;;;8.40;2.23;;;8.80;99.90;;;;;;489163;243;28362;-80
2023/03/14 02:34:10;;;;;;;5.30;2.30;;;8.80;99.90;;;;;;489123;243;28600;-79
2023/03/14 02:36:11;;;;;;;3.47;1.83;;;8.70;99.90;;;;;;489128;243;28571;-78
2023/03/14 02:38:13;;;;;;;4.70;1.60;;;8.70;99.90;;;;;;489134;243;28470;-78
2023/03/14 02:40:14;;;;;;;4.50;2.00;;;8.70;99.90;;;;;;489136;243;28503;-79
2023/03/14 02:42:15;;;;;;;5.73;1.90;;;8.70;99.90;;;;;;489125;243;27979;-78
2023/03/14 02:44:16;;;;;;;4.50;1.77;;;8.70;99.90;;;;;;489080;243;27985;-79
2023/03/14 02:46:18;;;;;;;4.37;1.77;;;8.70;99.90;;;;;;489135;243;27961;-78
2023/03/14 02:48:19;;;;;;;7.13;2.50;;;8.70;99.90;;;;;;489141;243;27889;-77
2023/03/14 02:50:20;;;;;;;7.60;2.00;;;8.70;99.90;;;;;;489086;243;28015;-79
2023/03/14 02:52:21;;;;;;;7.00;1.70;;;8.70;99.90;;;;;;489110;243;28069;-78
2023/03/14 02:54:23;;;;;;;8.43;1.80;;;8.70;99.90;;;;;;489127;243;28073;-78
2023/03/14 02:56:24;;;;;;;8.53;1.97;;;8.70;99.90;;;;;;489111;243;27974;-78
2023/03/14 02:58:25;;;;;;;3.20;1.50;;;8.70;99.90;;;;;;489118;243;28006;-77
2023/03/14 03:00:26;;;;;;;5.43;1.77;;;8.70;99.90;;;;;;489095;243;27559;-79
2023/03/14 03:02:28;;;;;;;3.90;2.10;;;8.60;99.90;;;;;;489088;243;27856;-78
2023/03/14 03:04:29;;;;;;;2.70;1.80;;;8.70;99.90;;;;;;489096;243;28072;-79
2023/03/14 03:06:30;;;;;;;4.17;2.00;;;8.70;99.90;;;;;;489143;243;27910;-79
2023/03/14 03:08:31;;;;;;;5.50;2.20;;;8.70;99.90;;;;;;489086;243;27531;-78
2023/03/14 03:10:33;;;;;;;6.00;2.17;;;8.60;99.90;;;;;;489032;243;28420;-79
2023/03/14 03:12:34;;;;;;;2.80;1.60;;;8.60;99.90;;;;;;489110;243;28430;-78
2023/03/14 03:14:37;;;;;;;12.40;2.00;;;8.60;99.90;;;;;;489119;243;28525;-78
2023/03/14 03:16:36;;;;;;;6.53;2.30;;;8.60;99.90;;;;;;488980;243;28189;-78
2023/03/14 03:18:38;;;;;;;6.83;1.93;;;8.60;99.90;;;;;;489127;243;27648;-78
2023/03/14 03:20:39;;;;;;;9.83;2.07;;;8.50;99.90;;;;;;489027;242;28058;-78
2023/03/14 03:22:40;;;;;;;3.70;1.60;;;8.50;99.90;;;;;;489090;243;28074;-77
2023/03/14 03:24:41;;;;;;;7.63;2.80;;;8.40;99.90;;;;;;489158;243;27996;-79
2023/03/14 03:26:43;;;;;;;5.63;1.80;;;8.40;99.90;;;;;;489130;243;27945;-79
2023/03/14 03:28:44;;;;;;;4.07;1.40;;;8.30;99.90;;;;;;489119;243;27962;-78
2023/03/14 03:30:45;;;;;;;3.43;1.93;;;8.30;99.90;;;;;;489125;243;27969;-78
2023/03/14 03:32:46;;;;;;;6.37;2.13;;;8.30;99.90;;;;;;489115;243;28102;-78
2023/03/14 03:34:48;;;;;;;5.80;2.30;;;8.20;99.90;;;;;;489109;243;27956;-77
2023/03/14 03:36:49;;;;;;;7.27;2.30;;;8.20;99.90;;;;;;489113;243;28205;-78
2023/03/14 03:38:50;;;;;;;6.80;2.10;;;8.20;99.90;;;;;;489119;243;27947;-78
2023/03/14 03:40:51;;;;;;;5.13;2.07;;;8.20;99.90;;;;;;489087;243;27906;-78
2023/03/14 03:42:53;;;;;;;3.70;2.03;;;8.20;99.90;;;;;;489061;243;27977;-78
2023/03/14 03:44:56;;;;;;;8.03;1.70;;;8.20;99.90;;;;;;489109;243;27992;-76
2023/03/14 03:46:57;;;;;;;5.10;1.60;;;8.20;99.90;;;;;;489087;243;27745;-78
2023/03/14 03:48:58;;;;;;;9.10;2.40;;;8.20;99.90;;;;;;489124;243;28158;-79
2023/03/14 03:50:59;;;;;;;4.77;1.67;;;8.20;99.90;;;;;;489103;243;28080;-78
2023/03/14 03:53:01;;;;;;;4.23;1.77;;;8.20;99.90;;;;;;489106;243;28498;-78
2023/03/14 03:55:02;;;;;;;10.07;2.77;;;8.30;99.90;;;;;;489101;243;29135;-79
2023/03/14 03:57:03;;;;;;;9.20;1.80;;;8.20;99.90;;;;;;489111;243;28313;-78
2023/03/14 03:59:04;;;;;;;4.20;2.03;;;8.20;99.90;;;;;;489102;243;28578;-77
2023/03/14 04:01:06;;;;;;;4.37;1.93;;;8.30;99.90;;;;;;489143;243;28491;-78
2023/03/14 04:03:07;;;;;;;10.27;2.10;;;8.20;99.90;;;;;;489098;242;27875;-77
2023/03/14 04:05:08;;;;;;;4.57;1.70;;;8.20;99.90;;;;;;489112;243;27511;-78
2023/03/14 04:07:09;;;;;;;8.60;2.10;;;8.20;99.90;;;;;;489112;243;27937;-77
2023/03/14 04:09:11;;;;;;;5.07;1.60;;;8.10;99.90;;;;;;489135;243;27940;-77
2023/03/14 04:11:12;;;;;;;6.10;2.17;;;8.10;99.90;;;;;;489077;243;27985;-77
2023/03/14 04:13:13;;;;;;;8.73;2.30;;;8.20;99.90;;;;;;489079;243;28010;-78
2023/03/14 04:15:14;;;;;;;12.60;2.50;;;8.20;99.90;;;;;;489078;243;27962;-78
2023/03/14 04:17:16;;;;;;;8.47;1.87;;;8.20;99.90;;;;;;489139;243;27477;-78
2023/03/14 04:19:17;;;;;;;3.30;1.47;;;8.20;99.90;;;;;;489143;243;28152;-77
2023/03/14 04:21:18;;;;;;;6.63;1.90;;;8.20;99.90;;;;;;489113;243;27708;-78
2023/03/14 04:23:19;;;;;;;9.30;1.60;;;8.20;99.90;;;;;;489088;243;28014;-77
2023/03/14 04:25:21;;;;;;;3.97;1.63;;;8.30;99.90;;;;;;489128;243;27963;-77
2023/03/14 04:27:22;;;;;;;8.27;1.40;;;8.30;99.90;;;;;;489100;243;28400;-79
2023/03/14 04:29:23;;;;;;;4.10;1.60;;;8.40;99.90;;;;;;489123;243;28522;-77
2023/03/14 04:31:24;;;;;;;5.77;1.60;;;8.30;99.90;;;;;;489185;243;28487;-77
2023/03/14 04:33:26;;;;;;;4.40;1.50;;;8.30;99.90;;;;;;489515;243;28418;-77
2023/03/14 04:35:27;;;;;;;2.67;1.63;;;8.30;99.90;;;;;;489460;243;29348;-79
2023/03/14 04:37:28;;;;;;;4.20;1.77;;;8.20;99.90;;;;;;489449;243;28572;-78
2023/03/14 04:39:29;;;;;;;5.07;1.33;;;8.20;99.90;;;;;;489465;243;27980;-77
2023/03/14 04:41:31;;;;;;;5.07;1.57;;;8.20;99.90;;;;;;489451;243;27818;-77
2023/03/14 04:43:32;;;;;;;3.40;1.20;;;8.20;99.90;;;;;;489419;243;27876;-77
2023/03/14 04:45:33;;;;;;;5.03;1.53;;;8.20;99.90;;;;;;489394;243;27826;-78
2023/03/14 04:47:34;;;;;;;6.13;1.90;;;8.10;99.90;;;;;;489335;243;27807;-77
2023/03/14 04:49:36;;;;;;;9.37;1.67;;;8.10;99.90;;;;;;489345;243;27951;-77
2023/03/14 04:51:37;;;;;;;4.50;1.40;;;8.00;99.90;;;;;;489256;243;28449;-78
2023/03/14 04:53:38;;;;;;;2.17;1.40;;;8.00;99.90;;;;;;489232;243;28004;-78
2023/03/14 04:55:39;;;;;;;2.40;1.50;;;8.10;99.90;;;;;;489293;243;27977;-78
2023/03/14 04:57:41;;;;;;;2.83;1.37;;;8.10;99.90;;;;;;489231;243;28028;-77
2023/03/14 04:59:42;;;;;;;2.90;1.37;;;8.10;99.90;;;;;;489294;243;27690;-77
2023/03/14 05:01:43;;;;;;;3.67;1.40;;;8.10;99.90;;;;;;489201;243;27954;-78
2023/03/14 05:03:44;;;;;;;6.47;1.60;;;8.10;99.90;;;;;;489157;243;27834;-77
2023/03/14 05:05:45;;;;;;;5.27;1.90;;;8.10;99.90;;;;;;489197;243;28563;-77
2023/03/14 05:07:47;;;;;;;3.37;1.40;;;8.10;99.90;;;;;;489201;243;28244;-78
2023/03/14 05:09:48;;;;;;;3.80;1.50;;;8.10;99.90;;;;;;489195;243;28525;-77
2023/03/14 05:11:49;;;;;;;6.20;1.40;;;8.10;99.90;;;;;;489161;243;28305;-77
2023/03/14 05:13:50;;;;;;;4.23;1.50;;;8.20;99.90;;;;;;489147;243;28505;-77
2023/03/14 05:15:52;;;;;;;5.40;1.97;;;8.20;99.90;;;;;;489124;243;27459;-77
2023/03/14 05:17:54;;;;;;;4.37;1.50;;;8.20;99.90;;;;;;489147;243;28367;-78
2023/03/14 05:19:54;;;;;;;3.87;1.40;;;8.20;99.90;;;;;;489109;243;28067;-77
2023/03/14 05:21:55;;;;;;;4.00;1.53;;;8.20;99.90;;;;;;489082;243;28085;-77
2023/03/14 05:23:57;;;;;;;5.03;1.43;;;8.20;99.90;;;;;;489062;243;27982;-77
2023/03/14 05:25:58;;;;;;;7.87;1.67;;;8.20;99.90;;;;;;489041;243;27856;-77
2023/03/14 05:27:59;;;;;;;3.80;2.13;;;8.20;99.90;;;;;;489114;243;28462;-77
2023/03/14 05:30:00;;;;;;;4.10;1.30;;;8.20;99.90;;;;;;489109;243;28011;-77
2023/03/14 05:32:02;;;;;;;5.40;1.50;;;8.20;99.90;;;;;;489098;243;28039;-77
2023/03/14 05:34:03;;;;;;;4.43;1.37;;;8.20;99.90;;;;;;489091;243;27946;-77
2023/03/14 05:36:04;;;;;;;2.90;1.20;;;8.20;99.90;;;;;;489123;243;27983;-77
2023/03/14 05:38:05;;;;;;;4.30;1.67;;;8.20;99.90;;;;;;489113;243;28251;-77
2023/03/14 05:40:08;;;;;;;5.73;1.77;;;8.20;99.90;;;;;;489120;243;27632;-77
2023/03/14 05:42:08;;;;;;;2.97;1.53;;;8.20;99.90;;;;;;488930;243;28046;-77
2023/03/14 05:44:09;;;;;;;2.60;1.20;;;8.20;99.90;;;;;;489095;243;28211;-78
2023/03/14 05:46:10;;;;;;;5.60;1.50;;;8.20;99.90;;;;;;489141;243;28777;-76
2023/03/14 05:48:12;;;;;;;7.20;1.97;;;8.20;99.90;;;;;;489157;243;28394;-77
2023/03/14 05:50:13;;;;;;;5.73;1.60;;;8.20;99.90;;;;;;489131;243;28469;-77
2023/03/14 05:52:14;;;;;;;3.10;1.50;;;8.20;99.90;;;;;;489113;243;28549;-75
2023/03/14 05:54:15;;;;;;;5.47;1.60;;;8.10;99.90;;;;;;489075;243;28025;-75
2023/03/14 05:56:17;;;;;;;7.87;1.77;;;8.10;99.90;;;;;;489106;243;28098;-75
2023/03/14 05:58:18;;;;;;;5.10;1.53;;;8.20;99.90;;;;;;489087;243;28018;-75
2023/03/14 06:00:21;;;;;;;7.07;2.03;;;8.10;99.90;;;;;;489132;243;28052;-75
2023/03/14 06:02:22;;;;;;;6.40;2.07;;;8.10;99.90;;;;;;489125;243;27833;-75
2023/03/14 06:04:23;;;;;;;7.27;1.63;;;8.10;99.90;;;;;;489133;243;28015;-75
2023/03/14 06:06:25;;;;;;;5.33;2.00;;;8.10;99.90;;;;;;489111;243;27578;-75
2023/03/14 06:08:27;;;;;;;6.80;1.83;;;8.10;99.90;;;;;;489123;243;27990;-75
2023/03/14 06:10:29;;;;;;;3.70;1.40;;;8.10;99.90;;;;;;489125;243;27956;-75
2023/03/14 06:12:30;;;;;;;7.33;2.10;;;8.00;99.90;;;;;;489124;243;28099;-75
2023/03/14 06:14:31;;;;;;;10.70;1.60;;;8.10;99.90;;;;;;489124;243;27516;-75
2023/03/14 06:16:33;;;;;;;5.17;1.90;;;8.00;99.90;;;;;;489101;243;28508;-75
2023/03/14 06:18:34;;;;;;;5.83;1.50;;;8.00;99.90;;;;;;489053;243;27507;-75
2023/03/14 06:20:38;;;;;;;8.40;1.90;;;8.00;99.90;;;;;;489114;243;27971;-75
2023/03/14 06:22:40;;;;;;;4.43;1.40;;;8.00;99.90;;;;;;488956;243;28224;-75
2023/03/14 06:24:40;;;;;;;4.80;1.80;;;8.00;99.90;;;;;;488943;243;28479;-75
2023/03/14 06:26:41;;;;;;;2.70;1.47;;;7.90;99.90;;;;;;489086;243;28611;-75
2023/03/14 06:28:43;;;;;;;3.13;1.53;;;8.00;99.90;;;;;;489088;243;28128;-75
2023/03/14 06:30:45;;;;;;;10.00;2.20;;;8.00;99.90;;;;;;489129;243;28566;-74
2023/03/14 06:32:47;;;;;;;6.43;1.53;;;8.00;99.90;;;;;;489095;243;28031;-74
2023/03/14 06:34:49;;;;;;;8.17;1.87;;;8.00;99.90;;;;;;489119;243;27614;-75
2023/03/14 06:36:50;;;;;;;7.80;1.50;;;8.00;99.90;;;;;;489121;243;27996;-74
2023/03/14 06:38:52;;;;;;;3.77;1.40;;;8.00;99.90;;;;;;489115;243;27975;-75
2023/03/14 06:40:54;;;;;;;4.93;1.83;;;8.00;99.90;;;;;;489127;243;28042;-75
2023/03/14 06:42:56;;;;;;;6.63;2.07;;;8.00;99.90;;;;;;489104;243;28028;-74
2023/03/14 06:44:57;;;;;;;5.00;1.40;;;7.90;99.90;;;;;;489104;243;28098;-75
2023/03/14 06:47:00;;;;;;;3.40;1.23;;;8.00;99.90;;;;;;489111;243;28542;-75
2023/03/14 06:49:01;;;;;;;4.93;1.77;;;8.00;99.90;;;;;;489112;243;28099;-75
2023/03/14 06:51:02;;;;;;;2.47;1.37;;;7.90;99.90;;;;;;489118;243;28046;-74
2023/03/14 06:53:04;;;;;;;2.80;1.20;;;7.90;99.90;;;;;;489107;243;28013;-74
2023/03/14 06:55:06;;;;;;;7.13;1.70;;;8.00;99.90;;;;;;489094;243;28023;-74
2023/03/14 06:57:08;;;;;;;5.03;1.67;;;8.00;99.90;;;;;;489105;243;28004;-75
2023/03/14 06:59:09;;;;;;;2.43;1.43;;;8.00;99.90;;;;;;489103;243;27945;-75
2023/03/14 07:01:11;;;;;;;4.33;1.40;;;8.10;99.90;;;;;;489133;243;28297;-75
2023/03/14 07:03:12;;;;;;;6.70;1.70;;;8.10;99.90;;;;;;489099;243;28025;-75
2023/03/14 07:05:13;;;;;;;2.23;1.30;;;8.10;99.90;;;;;;489091;243;28512;-75
2023/03/14 07:07:14;;;;;;;4.30;1.50;;;8.20;99.90;;;;;;489081;243;28514;-75
2023/03/14 07:09:17;;;;;;;2.70;1.20;;;8.20;99.90;;;;;;488952;243;28386;-75
2023/03/14 07:11:17;;;;;;;4.13;1.20;;;8.30;99.90;;;;;;488884;243;28522;-75
2023/03/14 07:13:18;;;;;;;1.97;1.27;;;8.20;99.90;;;;;;489023;243;28464;-75
2023/03/14 07:15:19;;;;;;;3.40;1.13;;;8.20;99.90;;;;;;489083;243;28131;-75
2023/03/14 07:17:21;;;;;;;2.20;1.07;;;8.20;99.90;;;;;;489088;243;28103;-75
2023/03/14 07:19:22;;;;;;;2.07;1.23;;;8.20;99.90;;;;;;489113;243;28034;-75
2023/03/14 07:21:23;;;;;;;3.73;1.17;;;8.20;99.90;;;;;;489148;243;27993;-75
2023/03/14 07:23:25;;;;;;;7.27;1.77;;;8.20;99.90;;;;;;489092;243;27941;-75
2023/03/14 07:25:26;;;;;;;2.03;1.20;;;8.20;99.90;;;;;;489041;243;28064;-75
2023/03/14 07:27:27;;;;;;;5.27;1.50;;;8.20;99.90;;;;;;489084;243;27853;-75
2023/03/14 07:29:28;;;;;;;4.43;1.10;;;8.30;99.90;;;;;;489114;243;28018;-75
2023/03/14 07:31:29;;;;;;;2.10;1.40;;;8.30;99.90;;;;;;489120;243;28008;-75
2023/03/14 07:33:31;;;;;;;2.93;1.20;;;8.30;99.90;;;;;;489117;243;28187;-74
2023/03/14 07:35:32;;;;;;;1.57;1.00;;;8.30;99.90;;;;;;489105;243;27941;-75
2023/03/14 07:37:33;;;;;;;1.47;1.33;;;8.40;99.90;;;;;;489058;243;27940;-73
2023/03/14 07:39:34;;;;;;;2.20;1.23;;;8.50;99.90;;;;;;489121;243;28025;-73
2023/03/14 07:41:36;;;;;;;2.37;1.10;;;8.60;99.90;;;;;;489116;243;27976;-74
2023/03/14 07:43:37;;;;;;;3.23;1.30;;;8.60;99.90;;;;;;489101;243;28517;-74
2023/03/14 07:45:38;;;;;;;3.40;1.67;;;8.60;99.90;;;;;;489091;243;28566;-74
2023/03/14 07:47:39;;;;;;;1.93;1.10;;;8.60;99.90;;;;;;489081;243;29120;-74
2023/03/14 07:49:41;;;;;;;1.00;0.90;;;8.60;99.90;;;;;;489125;243;28577;-74
2023/03/14 07:51:43;;;;;;;2.50;1.30;;;8.60;99.90;;;;;;489093;243;28410;-73
2023/03/14 07:53:43;;;;;;;2.33;1.27;;;8.60;99.90;;;;;;488833;243;27459;-73
2023/03/14 07:55:45;;;;;;;3.83;1.20;;;8.60;99.90;;;;;;489073;243;28127;-74
2023/03/14 07:57:46;;;;;;;3.80;1.10;;;8.60;99.90;;;;;;489062;243;28078;-74
2023/03/14 07:59:47;;;;;;;1.53;1.23;;;8.60;99.90;;;;;;489133;243;28032;-74
2023/03/14 08:01:48;;;;;;;3.23;1.20;;;8.60;99.90;;;;;;489117;243;27977;-74
2023/03/14 08:03:49;;;;;;;1.83;1.10;;;8.60;99.90;;;;;;489069;243;27925;-74
2023/03/14 08:05:51;;;;;;;2.03;1.00;;;8.60;99.90;;;;;;489110;243;27959;-74
2023/03/14 08:07:52;;;;;;;3.00;1.30;;;8.60;99.90;;;;;;489109;243;27996;-74
2023/03/14 08:09:53;;;;;;;1.83;0.97;;;8.60;99.90;;;;;;489123;243;27610;-74
2023/03/14 08:11:54;;;;;;;2.63;1.03;;;8.50;99.90;;;;;;489110;243;27977;-74
2023/03/14 08:13:56;;;;;;;1.07;1.00;;;8.50;99.90;;;;;;489084;243;28067;-73
2023/03/14 08:15:57;;;;;;;2.77;1.40;;;8.50;99.90;;;;;;489070;243;27980;-74
2023/03/14 08:17:58;;;;;;;1.00;1.00;;;8.50;99.90;;;;;;489092;243;27987;-75
2023/03/14 08:19:59;;;;;;;3.90;1.20;;;8.60;99.90;;;;;;489091;243;27960;-73
2023/03/14 08:22:01;;;;;;;2.10;1.20;;;8.50;99.90;;;;;;489095;243;28550;-74
2023/03/14 08:24:02;;;;;;;2.33;1.00;;;8.50;99.90;;;;;;489049;243;28442;-74
2023/03/14 08:26:03;;;;;;;3.57;1.20;;;8.60;99.90;;;;;;489081;243;28571;-74
2023/03/14 08:28:04;;;;;;;3.57;1.33;;;8.60;99.90;;;;;;489114;243;28477;-74
2023/03/14 08:30:06;;;;;;;3.67;1.30;;;8.60;99.90;;;;;;489107;243;28486;-74
2023/03/14 08:32:07;;;;;;;2.07;1.00;;;8.80;99.90;;;;;;489086;243;28067;-74
2023/03/14 08:34:08;;;;;;;1.77;1.30;;;8.80;99.90;;;;;;489085;243;28057;-74
2023/03/14 08:36:09;;;;;;;4.30;1.17;;;8.80;99.90;;;;;;489076;243;28052;-74
2023/03/14 08:38:11;;;;;;;8.03;1.40;;;8.80;99.90;;;;;;489081;243;28149;-74
2023/03/14 08:40:12;;;;;;;1.73;1.00;;;8.90;99.90;;;;;;489100;243;28083;-74
2023/03/14 08:42:13;;;;;;;1.50;1.10;;;8.90;99.90;;;;;;489059;243;27844;-74
2023/03/14 08:44:15;;;;;;;4.90;1.07;;;8.80;99.90;;;;;;489084;243;27960;-74
2023/03/14 08:46:16;;;;;;;1.93;0.90;;;8.80;99.90;;;;;;489088;243;27923;-73
2023/03/14 08:48:19;;;;;;;3.33;1.10;;;8.80;99.90;;;;;;489102;243;28373;-74
2023/03/14 08:50:19;;;;;;;2.83;1.27;;;8.70;99.90;;;;;;488969;243;28351;-74
2023/03/14 08:52:20;;;;;;;2.53;1.10;;;8.60;99.90;;;;;;489117;243;28363;-74
2023/03/14 08:54:21;;;;;;;0.80;0.80;;;8.60;99.90;;;;;;489128;243;28515;-74
2023/03/14 08:56:23;;;;;;;1.20;1.10;;;8.60;99.90;;;;;;489074;243;28377;-73
2023/03/14 08:58:24;;;;;;;2.50;0.90;;;8.60;99.90;;;;;;489118;243;28448;-74
2023/03/14 09:00:25;;;;;;;1.30;1.20;;;8.60;99.90;;;;;;489058;243;27884;-74
2023/03/14 09:02:27;;;;;;;1.60;0.93;;;8.60;99.90;;;;;;489067;243;27956;-74
2023/03/14 09:04:28;;;;;;;2.07;1.10;;;8.60;99.90;;;;;;489028;243;27970;-74
2023/03/14 09:06:29;;;;;;;2.40;1.20;;;8.70;99.90;;;;;;488974;243;28112;-73
2023/03/14 09:08:30;;;;;;;1.07;0.97;;;8.70;99.90;;;;;;489255;243;27961;-74
2023/03/14 09:10:31;;;;;;;1.83;1.00;;;8.70;99.90;;;;;;489263;243;27531;-74
2023/03/14 09:12:33;;;;;;;1.83;1.00;;;8.80;99.90;;;;;;489225;243;27484;-74
2023/03/14 09:14:34;;;;;;;1.30;1.20;;;8.80;99.90;;;;;;489274;243;27865;-74
2023/03/14 09:16:35;;;;;;;3.03;1.77;;;8.80;99.90;;;;;;489206;243;27934;-74
2023/03/14 09:18:36;;;;;;;1.30;1.13;;;8.90;99.90;;;;;;489175;243;28029;-74
2023/03/14 09:20:38;;;;;;;1.63;1.33;;;8.80;99.90;;;;;;489122;243;27929;-74
2023/03/14 09:22:39;;;;;;;1.10;1.00;;;8.80;99.90;;;;;;489147;243;27945;-74
2023/03/14 09:24:40;;;;;;;1.73;1.00;;;9.00;99.90;;;;;;489155;243;27858;-74
2023/03/14 09:26:41;;;;;;;1.00;1.00;;;9.10;99.90;;;;;;489096;243;28535;-73
2023/03/14 09:28:43;;;;;;;2.63;1.00;;;9.10;99.90;;;;;;489134;243;28457;-74
2023/03/14 09:30:44;;;;;;;0.90;0.80;;;9.10;99.90;;;;;;489149;243;28076;-74
2023/03/14 09:32:45;;;;;;;2.30;1.10;;;9.20;99.90;;;;;;489081;243;28485;-74
2023/03/14 09:34:46;;;;;;;1.47;1.00;;;9.30;99.90;;;;;;489035;243;28535;-74
2023/03/14 09:36:48;;;;;;;2.00;0.90;;;9.40;99.90;;;;;;489124;243;27933;-74
2023/03/14 09:38:49;;;;;;;1.83;1.00;;;9.50;99.90;;;;;;489095;243;27981;-74
2023/03/14 09:40:50;;;;;;;5.50;1.23;;;9.60;99.90;;;;;;489149;243;27825;-74
2023/03/14 09:42:51;;;;;;;1.13;1.03;;;9.50;99.90;;;;;;489129;243;28069;-74
2023/03/14 09:44:53;;;;;;;0.80;0.80;;;9.60;99.90;;;;;;489098;243;27985;-74
2023/03/14 09:46:54;;;;;;;2.87;0.93;;;9.50;99.90;;;;;;489086;243;27949;-74
2023/03/14 09:48:55;;;;;;;0.90;0.90;;;9.50;99.90;;;;;;489096;243;28193;-74
2023/03/14 09:50:58;;;;;;;2.03;1.00;;;9.50;99.90;;;;;;489119;243;28108;-74
2023/03/14 09:52:59;;;;;;;1.13;0.80;;;9.60;99.90;;;;;;489089;243;27979;-74
2023/03/14 09:55:02;;;;;;;0.87;0.80;;;9.60;99.90;;;;;;489119;243;28022;-74
2023/03/14 09:57:03;;;;;;;1.10;1.00;;;9.60;99.90;;;;;;489091;243;27866;-74
2023/03/14 09:59:05;;;;;;;2.83;0.80;;;9.70;99.90;;;;;;489125;243;28082;-74
2023/03/14 10:01:06;;;;;;;1.90;0.90;;;9.80;99.90;;;;;;489101;243;28015;-74
2023/03/14 10:03:07;;;;;;;1.93;1.00;;;9.80;99.90;;;;;;489081;243;28426;-73
2023/03/14 10:05:08;;;;;;;1.03;0.93;;;9.70;99.90;;;;;;489097;243;28387;-74
2023/03/14 10:07:10;;;;;;;0.90;0.90;;;9.60;99.90;;;;;;489076;243;28774;-74
2023/03/14 10:09:11;;;;;;;0.87;0.87;;;9.50;99.90;;;;;;489138;243;28568;-74
2023/03/14 10:11:12;;;;;;;0.97;0.90;;;9.40;99.90;;;;;;489112;243;28510;-74
2023/03/14 10:13:13;;;;;;;1.10;1.00;;;9.40;99.90;;;;;;489074;243;27992;-74
2023/03/14 10:15:19;;;;;;;1.77;1.07;;;9.40;99.90;;;;;;489104;243;27801;-74
2023/03/14 10:17:19;;;;;;;0.90;0.90;;;9.40;99.90;;;;;;488909;243;27868;-75
2023/03/14 10:19:20;;;;;;;2.10;0.87;;;9.40;99.90;;;;;;489082;243;28020;-74
2023/03/14 10:21:22;;;;;;;0.90;0.90;;;9.40;99.90;;;;;;489114;243;28876;-74
2023/03/14 10:23:23;;;;;;;0.80;0.80;;;9.20;99.90;;;;;;489115;243;28286;-74
2023/03/14 10:25:24;;;;;;;1.50;0.90;;;9.20;99.90;;;;;;489106;243;28466;-74
2023/03/14 10:27:25;;;;;;;1.73;0.97;;;9.30;99.90;;;;;;489109;243;29432;-74
2023/03/14 10:29:27;;;;;;;0.80;0.80;;;9.30;99.90;;;;;;489158;243;28511;-74
2023/03/14 10:31:28;;;;;;;3.23;0.90;;;9.40;99.90;;;;;;489137;243;27979;-74
2023/03/14 10:33:29;;;;;;;0.90;0.90;;;9.30;99.90;;;;;;489126;243;27931;-74
2023/03/14 10:35:30;;;;;;;0.87;0.87;;;9.40;99.90;;;;;;489154;243;28144;-74
2023/03/14 10:37:32;;;;;;;1.03;0.90;;;9.30;99.90;;;;;;489120;243;27951;-74
2023/03/14 10:39:33;;;;;;;0.93;0.83;;;9.20;99.90;;;;;;489147;243;27911;-74